createdAt,value
2018-04-23T00:00:31.458Z,5.03
2018-04-23T00:02:58.049Z,5.07
2018-04-23T00:05:24.662Z,4.70
2018-04-23T00:07:51.268Z,5.37
2018-04-23T00:10:17.898Z,5.00
2018-04-23T00:12:44.546Z,5.63
2018-04-23T00:15:11.169Z,5.00
2018-04-23T00:17:37.803Z,4.80
2018-04-23T00:20:04.392Z,5.20
2018-04-23T00:22:30.994Z,4.73
2018-04-23T00:24:57.582Z,4.80
2018-04-23T00:27:24.227Z,5.10
2018-04-23T00:29:50.908Z,5.70
2018-04-23T00:32:17.553Z,5.30
2018-04-23T00:34:44.140Z,5.30
2018-04-23T00:37:10.747Z,5.40
2018-04-23T00:39:37.335Z,4.70
2018-04-23T00:42:03.975Z,5.20
2018-04-23T00:44:30.562Z,4.90
2018-04-23T00:46:57.194Z,4.90
2018-04-23T00:49:23.778Z,4.97
2018-04-23T00:51:50.575Z,4.90
2018-04-23T00:54:17.213Z,4.50
2018-04-23T00:56:44.053Z,5.17
2018-04-23T00:59:10.657Z,5.07
2018-04-23T01:01:37.248Z,5.97
2018-04-23T01:04:03.866Z,5.50
2018-04-23T01:06:30.477Z,5.67
2018-04-23T01:08:57.087Z,5.17
2018-04-23T01:11:23.672Z,5.60
2018-04-23T01:13:50.315Z,4.43
2018-04-23T01:16:16.931Z,4.40
2018-04-23T01:18:43.748Z,4.83
2018-04-23T01:21:10.356Z,5.10
2018-04-23T01:23:36.965Z,5.40
2018-04-23T01:26:03.578Z,5.10
2018-04-23T01:28:30.155Z,4.70
2018-04-23T01:30:56.764Z,4.77
2018-04-23T01:33:23.360Z,4.80
2018-04-23T01:35:50.007Z,4.97
2018-04-23T01:38:16.575Z,5.83
2018-04-23T01:40:43.197Z,5.27
2018-04-23T01:43:10.019Z,5.10
2018-04-23T01:45:36.628Z,4.63
2018-04-23T01:48:03.227Z,5.10
2018-04-23T01:50:29.833Z,5.30
2018-04-23T01:52:56.442Z,5.50
2018-04-23T01:55:23.257Z,5.20
2018-04-23T01:57:50.156Z,4.90
2018-04-23T02:00:16.774Z,4.67
2018-04-23T02:02:43.360Z,4.87
2018-04-23T02:05:09.977Z,5.50
2018-04-23T02:07:36.575Z,4.83
2018-04-23T02:10:03.163Z,5.03
2018-04-23T02:12:29.794Z,5.60
2018-04-23T02:14:56.403Z,5.30
2018-04-23T02:17:23.032Z,5.10
2018-04-23T02:19:49.624Z,5.10
2018-04-23T02:22:16.213Z,5.60
2018-04-23T02:24:42.822Z,5.90
2018-04-23T02:27:09.430Z,5.00
2018-04-23T02:29:36.051Z,4.90
2018-04-23T02:32:02.671Z,5.90
2018-04-23T02:34:29.375Z,5.33
2018-04-23T02:36:55.985Z,4.90
2018-04-23T02:39:22.575Z,5.67
2018-04-23T02:41:49.177Z,5.20
2018-04-23T02:44:15.794Z,5.50
2018-04-23T02:46:42.389Z,4.97
2018-04-23T02:49:09.018Z,4.93
2018-04-23T02:51:35.633Z,5.47
2018-04-23T02:54:02.258Z,4.70
2018-04-23T02:56:28.860Z,4.60
2018-04-23T02:58:56.210Z,5.47
2018-04-23T03:01:22.820Z,5.53
2018-04-23T03:03:49.433Z,5.20
2018-04-23T03:06:16.008Z,5.40
2018-04-23T03:08:42.602Z,5.50
2018-04-23T03:11:09.203Z,5.40
2018-04-23T03:13:35.811Z,5.50
2018-04-23T03:16:02.399Z,5.33
2018-04-23T03:18:29.009Z,5.10
2018-04-23T03:20:55.630Z,5.03
2018-04-23T03:23:22.263Z,4.93
2018-04-23T03:25:48.864Z,5.50
2018-04-23T03:28:15.470Z,5.80
2018-04-23T03:30:42.078Z,5.47
2018-04-23T03:33:08.699Z,5.10
2018-04-23T03:35:35.265Z,5.50
2018-04-23T03:38:01.887Z,5.70
2018-04-23T03:40:28.481Z,5.10
2018-04-23T03:42:55.900Z,5.37
2018-04-23T03:45:22.498Z,5.17
2018-04-23T03:47:49.111Z,5.13
2018-04-23T03:50:15.733Z,5.53
2018-04-23T03:52:42.338Z,5.70
2018-04-23T03:55:08.949Z,5.10
2018-04-23T03:57:35.519Z,5.20
2018-04-23T04:00:02.173Z,5.03
2018-04-23T04:02:28.753Z,5.30
2018-04-23T04:04:55.379Z,5.43
2018-04-23T04:07:21.968Z,5.80
2018-04-23T04:09:48.578Z,5.47
2018-04-23T04:12:31.795Z,4.90
2018-04-23T04:15:04.201Z,5.20
2018-04-23T04:17:32.689Z,6.30
2018-04-23T04:19:59.321Z,5.60
2018-04-23T04:22:25.934Z,5.90
2018-04-23T04:24:52.522Z,9.27
2018-04-23T04:27:19.142Z,5.70
2018-04-23T04:29:45.779Z,6.40
2018-04-23T04:32:12.382Z,6.70
2018-04-23T04:34:39.896Z,5.83
2018-04-23T04:37:06.512Z,5.80
2018-04-23T04:39:33.104Z,5.47
2018-04-23T04:41:59.766Z,5.77
2018-04-23T04:44:26.354Z,5.00
2018-04-23T04:46:52.941Z,5.50
2018-04-23T04:49:19.646Z,4.53
2018-04-23T04:51:46.440Z,5.23
2018-04-23T04:54:13.031Z,6.17
2018-04-23T04:56:40.191Z,5.63
2018-04-23T04:59:07.032Z,5.67
2018-04-23T05:01:33.566Z,4.67
2018-04-23T05:04:00.223Z,5.50
2018-04-23T05:06:26.923Z,5.77
2018-04-23T05:08:53.561Z,5.40
2018-04-23T05:11:20.145Z,5.87
2018-04-23T05:13:46.784Z,6.80
2018-04-23T05:16:13.368Z,5.87
2018-04-23T05:18:39.994Z,5.90
2018-04-23T05:21:06.616Z,6.47
2018-04-23T05:23:33.278Z,5.97
2018-04-23T05:25:59.972Z,5.93
2018-04-23T05:28:26.564Z,5.20
2018-04-23T05:30:53.178Z,5.90
2018-04-23T05:33:19.798Z,5.67
2018-04-23T05:35:46.458Z,5.40
2018-04-23T05:38:13.087Z,5.60
2018-04-23T05:40:39.708Z,6.10
2018-04-23T05:43:06.338Z,5.90
2018-04-23T05:45:32.954Z,6.43
2018-04-23T05:47:59.548Z,5.90
2018-04-23T05:50:26.187Z,6.30
2018-04-23T05:52:52.964Z,5.43
2018-04-23T05:55:19.623Z,6.00
2018-04-23T05:57:46.221Z,6.10
2018-04-23T06:00:12.894Z,6.33
2018-04-23T06:02:39.502Z,6.40
2018-04-23T06:05:06.149Z,6.30
2018-04-23T06:07:32.717Z,6.87
2018-04-23T06:09:59.384Z,6.23
2018-04-23T06:12:26.016Z,6.57
2018-04-23T06:14:52.642Z,6.10
2018-04-23T06:17:19.276Z,6.07
2018-04-23T06:19:45.891Z,6.67
2018-04-23T06:22:13.103Z,6.40
2018-04-23T06:24:39.706Z,6.10
2018-04-23T06:27:06.582Z,6.40
2018-04-23T06:29:33.170Z,5.53
2018-04-23T06:31:59.847Z,5.73
2018-04-23T06:34:26.479Z,6.40
2018-04-23T06:36:53.102Z,6.20
2018-04-23T06:39:19.753Z,6.00
2018-04-23T06:41:46.387Z,6.43
2018-04-23T06:44:13.022Z,6.23
2018-04-23T06:46:39.608Z,6.80
2018-04-23T06:49:06.223Z,6.80
2018-04-23T06:51:32.826Z,6.80
2018-04-23T06:53:59.468Z,6.77
2018-04-23T06:56:26.047Z,6.20
2018-04-23T06:58:52.690Z,6.13
2018-04-23T07:01:19.330Z,6.83
2018-04-23T07:03:46.841Z,6.70
2018-04-23T07:06:13.457Z,6.20
2018-04-23T07:08:40.068Z,5.97
2018-04-23T07:11:06.689Z,6.47
2018-04-23T07:13:33.335Z,7.20
2018-04-23T07:15:59.948Z,6.40
2018-04-23T07:18:26.658Z,6.67
2018-04-23T07:20:53.301Z,7.00
2018-04-23T07:23:19.888Z,6.90
2018-04-23T07:25:46.504Z,6.87
2018-04-23T07:28:13.158Z,6.83
2018-04-23T07:30:39.758Z,6.57
2018-04-23T07:33:06.485Z,6.70
2018-04-23T07:35:33.134Z,5.73
2018-04-23T07:37:59.706Z,7.60
2018-04-23T07:40:26.347Z,7.63
2018-04-23T07:42:53.050Z,7.67
2018-04-23T07:45:19.738Z,7.33
2018-04-23T07:47:46.320Z,7.73
2018-04-23T07:50:13.063Z,6.60
2018-04-23T07:52:39.665Z,6.70
2018-04-23T07:55:06.288Z,6.53
2018-04-23T07:57:33.092Z,7.50
2018-04-23T07:59:59.765Z,8.00
2018-04-23T08:02:26.362Z,7.73
2018-04-23T08:04:52.952Z,8.60
2018-04-23T08:07:19.562Z,8.07
2018-04-23T08:09:46.163Z,8.87
2018-04-23T08:12:12.791Z,15.10
2018-04-23T08:14:39.404Z,9.67
2018-04-23T08:17:06.037Z,9.03
2018-04-23T08:19:32.639Z,9.30
2018-04-23T08:21:59.275Z,9.40
2018-04-23T08:24:25.888Z,7.50
2018-04-23T08:26:52.521Z,9.30
2018-04-23T08:29:19.111Z,8.40
2018-04-23T08:31:45.752Z,9.97
2018-04-23T08:34:12.357Z,8.27
2018-04-23T08:36:38.997Z,8.80
2018-04-23T08:39:05.631Z,7.57
2018-04-23T08:41:32.282Z,8.63
2018-04-23T08:43:58.886Z,8.80
2018-04-23T08:46:25.473Z,8.90
2018-04-23T08:48:52.086Z,8.17
2018-04-23T08:51:18.714Z,9.10
2018-04-23T08:53:45.359Z,10.77
2018-04-23T08:56:11.968Z,13.40
2018-04-23T08:58:38.610Z,8.80
2018-04-23T09:01:05.201Z,9.00
2018-04-23T09:03:31.795Z,8.63
2018-04-23T09:05:58.410Z,8.57
2018-04-23T09:08:25.043Z,9.20
2018-04-23T09:10:51.631Z,8.87
2018-04-23T09:13:18.273Z,8.47
2018-04-23T09:15:44.886Z,8.20
2018-04-23T09:18:11.523Z,8.60
2018-04-23T09:20:38.417Z,9.37
2018-04-23T09:23:05.042Z,8.37
2018-04-23T09:25:31.670Z,9.40
2018-04-23T09:27:58.244Z,7.97
2018-04-23T09:30:24.857Z,9.20
2018-04-23T09:32:51.488Z,7.70
2018-04-23T09:35:18.206Z,7.83
2018-04-23T09:37:44.846Z,8.20
2018-04-23T09:40:11.509Z,8.50
2018-04-23T09:42:38.165Z,8.53
2018-04-23T09:45:04.776Z,8.23
2018-04-23T09:47:31.379Z,12.00
2018-04-23T09:49:58.041Z,28.27
2018-04-23T09:52:24.645Z,9.07
2018-04-23T09:54:51.259Z,9.20
2018-04-23T09:57:17.896Z,22.43
2018-04-23T09:59:44.508Z,42.60
2018-04-23T10:02:11.126Z,13.83
2018-04-23T10:04:37.717Z,9.73
2018-04-23T10:07:04.383Z,10.00
2018-04-23T10:09:31.159Z,8.73
2018-04-23T10:11:57.860Z,9.13
2018-04-23T10:14:24.632Z,9.77
2018-04-23T10:16:51.549Z,11.97
2018-04-23T10:19:18.423Z,9.13
2018-04-23T10:21:45.057Z,9.80
2018-04-23T10:24:11.704Z,8.50
2018-04-23T10:26:38.328Z,18.80
2018-04-23T10:29:04.980Z,8.73
2018-04-23T10:31:31.581Z,10.87
2018-04-23T10:33:58.300Z,9.40
2018-04-23T10:36:24.907Z,8.97
2018-04-23T10:38:51.581Z,8.67
2018-04-23T10:41:18.382Z,9.93
2018-04-23T10:43:45.119Z,9.83
2018-04-23T10:46:11.744Z,8.50
2018-04-23T10:48:38.325Z,10.03
2018-04-23T10:51:05.477Z,9.70
2018-04-23T10:53:32.077Z,10.60
2018-04-23T10:55:58.685Z,8.90
2018-04-23T10:58:25.325Z,9.20
2018-04-23T11:00:52.044Z,9.90
2018-04-23T11:03:18.684Z,10.07
2018-04-23T11:05:45.309Z,11.17
2018-04-23T11:08:11.923Z,10.00
2018-04-23T11:10:38.740Z,10.90
2018-04-23T11:13:05.374Z,11.07
2018-04-23T11:15:32.065Z,14.50
2018-04-23T11:17:58.699Z,12.40
2018-04-23T11:20:25.372Z,11.23
2018-04-23T11:22:51.964Z,12.33
2018-04-23T11:25:19.079Z,10.63
2018-04-23T11:27:45.675Z,11.13
2018-04-23T11:30:12.315Z,12.30
2018-04-23T11:32:39.090Z,13.50
2018-04-23T11:44:45.743Z,9.73
2018-04-23T11:47:12.356Z,8.40
2018-04-23T11:49:38.959Z,9.10
2018-04-23T11:52:05.580Z,10.33
2018-04-23T11:54:32.231Z,13.17
2018-04-23T11:56:58.821Z,12.00
2018-04-23T11:59:25.409Z,18.47
2018-04-23T12:01:52.035Z,12.33
2018-04-23T12:04:18.621Z,10.80
2018-04-23T12:06:45.243Z,11.80
2018-04-23T12:09:11.847Z,12.00
2018-04-23T12:11:38.506Z,11.13
2018-04-23T12:14:05.108Z,10.90
2018-04-23T12:16:31.712Z,9.97
2018-04-23T12:18:58.326Z,9.20
2018-04-23T12:21:24.954Z,10.73
2018-04-23T12:23:51.551Z,9.50
2018-04-23T12:26:18.159Z,11.70
2018-04-23T12:28:44.795Z,11.27
2018-04-23T12:31:11.620Z,11.63
2018-04-23T12:33:38.246Z,9.50
2018-04-23T12:36:04.868Z,11.10
2018-04-23T12:38:31.489Z,10.20
2018-04-23T12:40:58.081Z,10.60
2018-04-23T12:43:24.694Z,9.03
2018-04-23T12:45:51.340Z,14.57
2018-04-23T12:48:17.922Z,10.70
2018-04-23T12:50:44.670Z,9.93
2018-04-23T12:53:11.379Z,15.90
2018-04-23T12:55:38.006Z,12.60
2018-04-23T12:58:04.620Z,10.70
2018-04-23T13:00:31.233Z,10.90
2018-04-23T13:02:57.900Z,10.63
2018-04-23T13:05:24.516Z,10.40
2018-04-23T13:07:51.103Z,8.57
2018-04-23T13:10:17.730Z,8.50
2018-04-23T13:12:44.320Z,7.17
2018-04-23T13:15:10.922Z,8.13
2018-04-23T13:17:37.508Z,8.70
2018-04-23T13:20:04.120Z,7.67
2018-04-23T13:22:30.718Z,8.43
2018-04-23T13:24:57.380Z,14.67
2018-04-23T13:27:23.982Z,10.10
2018-04-23T13:29:50.641Z,7.80
2018-04-23T13:32:17.235Z,8.50
2018-04-23T13:34:44.037Z,13.13
2018-04-23T13:37:10.648Z,8.80
2018-04-23T13:39:37.272Z,9.20
2018-04-23T13:42:03.905Z,9.07
2018-04-23T13:44:30.525Z,9.93
2018-04-23T13:46:57.110Z,9.47
2018-04-23T13:49:23.710Z,8.03
2018-04-23T13:51:50.334Z,8.13
2018-04-23T13:54:16.919Z,9.10
2018-04-23T13:56:43.594Z,10.50
2018-04-23T13:59:10.268Z,8.93
2018-04-23T14:01:36.938Z,9.07
2018-04-23T14:04:03.585Z,7.87
2018-04-23T14:06:30.210Z,8.70
2018-04-23T14:08:57.591Z,10.00
2018-04-23T14:11:24.286Z,8.70
2018-04-23T14:13:50.914Z,10.80
2018-04-23T14:16:17.507Z,9.30
2018-04-23T14:18:44.116Z,9.57
2018-04-23T14:21:10.816Z,9.33
2018-04-23T14:23:37.465Z,8.23
2018-04-23T14:26:04.055Z,9.27
2018-04-23T14:28:30.693Z,9.23
2018-04-23T14:30:57.274Z,8.70
2018-04-23T14:33:23.875Z,8.87
2018-04-23T14:35:50.469Z,8.20
2018-04-23T14:38:17.132Z,9.97
2018-04-23T14:40:43.875Z,8.67
2018-04-23T14:43:10.474Z,7.97
2018-04-23T14:45:37.212Z,7.83
2018-04-23T14:48:03.854Z,7.53
2018-04-23T14:50:30.484Z,8.10
2018-04-23T14:52:57.347Z,7.17
2018-04-23T14:55:23.982Z,7.70
2018-04-23T14:57:50.563Z,6.93
2018-04-23T15:00:17.178Z,6.83
2018-04-23T15:02:43.809Z,7.50
2018-04-23T15:05:10.426Z,7.30
2018-04-23T15:07:37.024Z,6.90
2018-04-23T15:10:03.630Z,8.07
2018-04-23T15:12:30.387Z,7.30
2018-04-23T15:14:57.062Z,7.50
2018-04-23T15:17:23.767Z,7.07
2018-04-23T15:19:50.418Z,6.73
2018-04-23T15:22:17.035Z,6.80
2018-04-23T15:24:43.656Z,7.20
2018-04-23T15:27:10.296Z,6.93
2018-04-23T15:29:36.897Z,7.13
2018-04-23T15:32:03.505Z,6.53
2018-04-23T15:34:30.116Z,6.73
2018-04-23T15:36:56.745Z,7.87
2018-04-23T15:39:23.490Z,7.60
2018-04-23T15:41:50.131Z,7.00
2018-04-23T15:44:16.792Z,7.60
2018-04-23T15:46:44.793Z,7.73
2018-04-23T15:49:11.401Z,8.50
2018-04-23T15:51:38.044Z,7.17
2018-04-23T15:54:04.916Z,8.33
2018-04-23T15:56:31.565Z,7.37
2018-04-23T15:58:58.207Z,7.47
2018-04-23T16:01:24.803Z,7.53
2018-04-23T16:03:51.548Z,7.70
2018-04-23T16:06:18.145Z,7.60
2018-04-23T16:08:44.822Z,7.43
2018-04-23T16:11:11.476Z,7.37
2018-04-23T16:13:38.197Z,7.00
2018-04-23T16:16:04.891Z,6.00
2018-04-23T16:18:31.632Z,5.53
2018-04-23T16:20:58.385Z,5.03
2018-04-23T16:23:25.059Z,4.60
2018-04-23T16:25:51.671Z,4.97
2018-04-23T16:28:18.466Z,4.90
2018-04-23T16:30:45.356Z,4.47
2018-04-23T16:33:12.179Z,4.67
2018-04-23T16:35:39.023Z,4.10
2018-04-23T16:38:05.645Z,4.60
2018-04-23T16:40:32.321Z,4.60
2018-04-23T16:42:58.964Z,4.10
2018-04-23T16:45:25.604Z,4.40
2018-04-23T16:47:52.645Z,4.53
2018-04-23T16:50:19.287Z,4.70
2018-04-23T16:52:45.921Z,4.60
2018-04-23T16:55:27.698Z,5.20
2018-04-23T16:57:54.345Z,4.57
2018-04-23T17:00:21.031Z,4.40
2018-04-23T17:02:47.781Z,4.53
2018-04-23T17:05:14.500Z,6.83
2018-04-23T17:07:41.177Z,4.20
2018-04-23T17:10:07.924Z,4.03
2018-04-23T17:12:34.551Z,4.30
2018-04-23T17:15:01.202Z,4.00
2018-04-23T17:17:27.811Z,3.77
2018-04-23T17:19:54.417Z,3.93
2018-04-23T17:22:21.083Z,3.60
2018-04-23T17:24:47.716Z,4.30
2018-04-23T17:27:14.381Z,3.90
2018-04-23T17:29:41.255Z,4.00
2018-04-23T17:32:07.904Z,3.77
2018-04-23T17:34:34.519Z,3.87
2018-04-23T17:37:01.158Z,4.00
2018-04-23T17:39:27.840Z,3.33
2018-04-23T17:41:54.495Z,3.00
2018-04-23T17:44:21.102Z,3.63
2018-04-23T17:46:47.725Z,3.47
2018-04-23T17:49:14.325Z,3.60
2018-04-23T17:51:41.031Z,3.50
2018-04-23T17:54:07.670Z,3.47
2018-04-23T17:56:34.276Z,3.67
2018-04-23T17:59:00.932Z,3.20
2018-04-23T18:01:27.555Z,3.77
2018-04-23T18:03:54.221Z,3.17
2018-04-23T18:06:20.848Z,3.57
2018-04-23T18:08:47.559Z,3.17
2018-04-23T18:11:14.168Z,2.90
2018-04-23T18:13:41.062Z,2.90
2018-04-23T18:16:07.707Z,3.70
2018-04-23T18:18:34.553Z,4.10
2018-04-23T18:21:01.169Z,3.47
2018-04-23T18:23:27.882Z,3.30
2018-04-23T18:25:54.514Z,3.10
2018-04-23T18:28:21.251Z,3.50
2018-04-23T18:30:48.863Z,3.53
2018-04-23T18:33:16.557Z,3.40
2018-04-23T18:35:43.191Z,3.57
2018-04-23T18:38:09.974Z,3.00
2018-04-23T18:40:36.939Z,3.40
2018-04-23T18:43:03.681Z,3.27
2018-04-23T18:45:30.452Z,2.90
2018-04-23T18:47:59.107Z,3.60
2018-04-23T18:50:25.900Z,2.70
2018-04-23T18:52:52.604Z,3.23
2018-04-23T18:55:19.289Z,3.07
2018-04-23T18:57:46.009Z,2.80
2018-04-23T19:00:12.692Z,2.70
2018-04-23T19:02:39.415Z,2.93
2018-04-23T19:05:06.121Z,2.60
2018-04-23T19:07:32.769Z,2.77
2018-04-23T19:09:59.604Z,3.10
2018-04-23T19:12:26.260Z,3.17
2018-04-23T19:14:52.902Z,3.10
2018-04-23T19:17:19.672Z,2.47
2018-04-23T19:19:46.403Z,3.40
2018-04-23T19:22:13.050Z,3.33
2018-04-23T19:24:39.760Z,2.80
2018-04-23T19:27:07.052Z,3.20
2018-04-23T19:29:33.760Z,3.10
2018-04-23T19:32:00.460Z,2.93
2018-04-23T19:34:28.426Z,2.60
2018-04-23T19:36:55.220Z,2.80
2018-04-23T19:39:21.883Z,2.90
2018-04-23T19:41:48.538Z,2.93
2018-04-23T19:44:16.197Z,3.10
2018-04-23T19:46:43.861Z,2.63
2018-04-23T19:49:10.598Z,3.07
2018-04-23T19:51:37.308Z,2.73
2018-04-23T19:54:04.077Z,2.80
2018-04-23T19:56:31.951Z,3.37
2018-04-23T19:59:06.915Z,3.57
2018-04-23T20:01:34.303Z,3.70
2018-04-23T20:04:05.015Z,3.23
2018-04-23T20:06:31.842Z,3.50
2018-04-23T20:08:58.971Z,3.33
2018-04-23T20:11:26.323Z,2.93
2018-04-23T20:13:53.751Z,3.10
2018-04-23T20:16:20.412Z,2.80
2018-04-23T20:18:47.211Z,3.23
2018-04-23T20:21:13.906Z,3.57
2018-04-23T20:23:40.631Z,3.73
2018-04-23T20:26:07.565Z,3.70
2018-04-23T20:28:34.264Z,3.23
2018-04-23T20:31:01.038Z,2.90
2018-04-23T20:33:27.771Z,3.40
2018-04-23T20:35:55.333Z,3.90
2018-04-23T20:38:22.653Z,3.57
2018-04-23T20:40:49.302Z,3.70
2018-04-23T20:43:15.965Z,4.30
2018-04-23T20:45:42.656Z,3.83
2018-04-23T20:48:09.540Z,4.10
2018-04-23T20:50:36.249Z,4.27
2018-04-23T20:53:03.278Z,3.90
2018-04-23T20:55:30.779Z,4.40
2018-04-23T20:57:57.466Z,4.40
2018-04-23T21:00:24.415Z,4.37
2018-04-23T21:02:51.247Z,4.47
2018-04-23T21:05:18.074Z,4.03
2018-04-23T21:07:44.973Z,4.77
2018-04-23T21:19:51.618Z,4.63
2018-04-23T21:22:18.552Z,4.93
2018-04-23T21:24:45.859Z,4.37
2018-04-23T21:27:12.589Z,5.87
2018-04-23T21:29:39.262Z,4.50
2018-04-23T21:32:07.057Z,4.87
2018-04-23T21:34:33.786Z,5.00
2018-04-23T21:37:00.617Z,5.30
2018-04-23T21:39:27.601Z,6.20
2018-04-23T21:41:54.285Z,4.77
2018-04-23T21:44:20.977Z,4.70
2018-04-23T21:46:47.672Z,5.33
2018-04-23T21:49:14.358Z,5.10
2018-04-23T21:51:40.993Z,5.17
2018-04-23T21:54:07.706Z,4.83
2018-04-23T21:56:34.376Z,5.20
2018-04-23T21:59:01.034Z,4.57
2018-04-23T22:01:27.733Z,4.80
2018-04-23T22:03:54.606Z,5.50
2018-04-23T22:06:21.246Z,5.40
2018-04-23T22:08:47.861Z,4.90
2018-04-23T22:11:14.523Z,5.67
2018-04-23T22:13:41.159Z,5.63
2018-04-23T22:16:07.838Z,4.77
2018-04-23T22:18:34.441Z,4.97
2018-04-23T22:21:01.152Z,4.40
2018-04-23T22:23:27.763Z,4.60
2018-04-23T22:28:27.491Z,4.83
2018-04-23T22:30:54.208Z,4.50
2018-04-23T22:33:21.248Z,4.17
2018-04-23T22:35:49.990Z,4.83
2018-04-23T22:38:17.654Z,4.53
2018-04-23T22:40:44.449Z,4.67
2018-04-23T22:43:12.848Z,4.30
2018-04-23T22:45:41.292Z,5.00
2018-04-23T22:48:10.020Z,4.90
2018-04-23T22:50:40.993Z,4.30
2018-04-23T22:53:08.631Z,4.17
2018-04-23T22:55:35.380Z,4.47
2018-04-23T22:58:03.221Z,4.50
2018-04-23T23:00:33.527Z,5.57
2018-04-23T23:03:00.596Z,4.93
2018-04-23T23:05:28.422Z,4.57
2018-04-23T23:07:55.473Z,5.70
2018-04-23T23:10:22.888Z,4.50
2018-04-23T23:12:50.252Z,5.17
2018-04-23T23:17:52.897Z,4.47
2018-04-23T23:20:21.210Z,4.83
2018-04-23T23:22:48.127Z,4.73
2018-04-23T23:25:15.059Z,4.60
2018-04-23T23:27:41.912Z,4.60
2018-04-23T23:30:08.484Z,5.00
2018-04-23T23:32:35.070Z,4.83
2018-04-23T23:35:01.693Z,4.93
2018-04-23T23:37:28.303Z,5.00
2018-04-23T23:39:54.902Z,5.30
2018-04-23T23:42:21.776Z,4.77
2018-04-23T23:44:48.380Z,5.13
2018-04-23T23:47:15.070Z,5.30
2018-04-23T23:49:41.698Z,5.97
2018-04-23T23:52:08.303Z,4.90
2018-04-23T23:54:35.055Z,5.33
2018-04-23T23:57:01.683Z,5.47
2018-04-23T23:59:28.333Z,5.07
